Fresno Yosemite International Airport
KFAT : now visible

Airfield :











YOU CAN JOIN US ON...

 
LOGIN :

Register | Disclaimer

   EN    FR    IT 

 









Legend :    VFR   Marginal VFR   IFR   Intensive IFR   Very Intensive IFR
Visi :
Ceiling :
>= 8 km
>= 3000ft
5 to 8 km
1000 to 3000 ft
1500m to 5 km
500 to 1000 ft
800 to 1500m
200 to 500 ft
< 800m
< 200 ft
Symbols :   Thunderstorms  Fog  Heavy snow  Heavy precipitations  Wind > 20 kt






- Airport Elevation : 336 ft
- IATA code : FAT


KFAT - Fresno Yosemite International

CURRENT METAR :
  • 071953Z 28005KT 10SM BKN046 16/05 A3008 RMK AO2 SLP186 CU TPG MTNS DSNT N-E-S T01610050

EXPIRED METARs :
  • 071853Z 00000KT 10SM OVC032 14/05 A3010 RMK AO2 SLP192 CU TPG MTNS DSNT N-E-S T01440050
  • 071753Z 00000KT 10SM SCT015 BKN050 13/07 A3012 RMK AO2 SLP197 CU OMTNS DSNT N-E-S T01330072 10139 20083 51009
  • 071736Z 00000KT 10SM SCT015 SCT200 13/07 A3011 RMK AO2 MTNS OBSC CLDS DSNT N-E-S T01330072
  • 071727Z 00000KT 10SM BKN015 BKN200 13/07 A3011 RMK AO2 MTNS OBSC CLDS DSNT N-E-S T01280072
  • 071715Z COR VRB03KT 10SM BKN015 BKN200 13/08 A3012 RMK AO2 T01280078

TAF KFAT
Valid from the 07 at 18:00 until the 08 at 18:00 UTC


071752Z 0718/0818 31003KT P6SM SCT020
FM080400 VRB03KT P6SM SCT025 OVC060
FM080600 13002KT P6SM -RA OVC025
FM081700 15005KT P6SM OVC025



MET'MAP, your aeronautical weather chart ! - Copyright ORBIFLY December 2007 - Disclaimer

ORBIFLY MET'MAP TEAM :

Programming & Development : Alexandra Zaïnal
Concept & original design : Baudouin d'Aumeries
Assistance for programming : Marc-Olivier Méhu
Technical & hardware support : Manuel Goepfert

Contact : metmap@orbifly.com




SOURCES & CREDITS :

   NOAA       Earth
Advisory